Hartsfield Jackson Atlanta International Airport
KATL : now visible

Airfield :











YOU CAN JOIN US ON...

 
LOGIN :

Register | Disclaimer

   EN    FR    IT 

 









Legend :    VFR   Marginal VFR   IFR   Intensive IFR   Very Intensive IFR
Visi :
Ceiling :
>= 8 km
>= 3000ft
5 to 8 km
1000 to 3000 ft
1500m to 5 km
500 to 1000 ft
800 to 1500m
200 to 500 ft
< 800m
< 200 ft
Symbols :   Thunderstorms  Fog  Heavy snow  Heavy precipitations  Wind > 20 kt







- Airport Elevation : 1026 ft
- IATA code : ATL


KATL - Hartsfield Jackson Atlanta International

CURRENT METAR :
  • 241852Z 10SM SCT060TCU 34/18 A3017 RMK AO2 SLP205 TCU SE W NW MDT CU ALQDS T03390178

EXPIRED METARs :
  • 241752Z 32010KT 10SM SCT055TCU 33/19 A3019 RMK AO2 SLP211 TCU W MDT CU ALQDS T03280194 10328 20228 58010
  • 241652Z 32007KT 290V350 10SM SCT050 31/18 A3021 RMK AO2 SLP218 MDT CU ALQDS T03110178

TAF KATL
Valid from the 24 at 20:00 until the 26 at 00:00 UTC


241932Z 2420/2524 29007KT P6SM SCT060
FM250100 30003KT P6SM FEW060 SCT250
FM251600 28006KT P6SM FEW045
KZTL FIR / North America



MET'MAP, your aeronautical weather chart ! - Copyright ORBIFLY December 2007 - Disclaimer

ORBIFLY MET'MAP TEAM :

Programming & Development : Alexandra Zaïnal
Concept & Development : Baudouin d'Aumeries
Co-Development & Prog : Marc-Olivier Méhu
Technical & hardware support : Manuel Goepfert

Contact : metmap@orbifly.com




SOURCES & CREDITS :

   NOAA       Earth
Advisory